Terminal Aerodrome Forecast
Issued by NWS Brownsville, TX

Home | Current Version | Previous Version | Text Only | Print | Product List | Glossary On
Versions: 1 2 3 4 5 6 7 8 9 10 11 12 13 14 15 16 17 18 19 20 21 22 23 24 25
389
FTUS44 KBRO 310551 CCA
TAFMFE
TAF COR
KMFE 310551Z 3106/3124 VRB04KT P6SM SKC
     FM311200 14010KT P6SM BKN030
      TEMPO 3112/3116 3SM -TSRA BKN020CB
     FM311800 14013G18KT P6SM BKN050=

USA.gov is the U.S. government's official web portal to all federal, state and local government web resources and services.